sensor_id;sensor_type;location;lat;lon;timestamp;pressure;altitude;pressure_sealevel;temperature;humidity
60897;BME280;46749;32.932;-117.130;2023-07-20T00:02:01;101279.94;;;17.59;61.53
60897;BME280;46749;32.932;-117.130;2023-07-20T00:04:28;101270.31;;;17.60;61.40
60897;BME280;46749;32.932;-117.130;2023-07-20T00:06:54;101269.44;;;17.59;61.59
60897;BME280;46749;32.932;-117.130;2023-07-20T00:09:21;101271.22;;;17.60;61.52
60897;BME280;46749;32.932;-117.130;2023-07-20T00:11:51;101265.97;;;17.60;61.47
60897;BME280;46749;32.932;-117.130;2023-07-20T00:14:17;101260.72;;;17.60;61.43
60897;BME280;46749;32.932;-117.130;2023-07-20T00:16:45;101257.19;;;17.60;61.41
60897;BME280;46749;32.932;-117.130;2023-07-20T00:19:25;101255.50;;;17.62;61.69
60897;BME280;46749;32.932;-117.130;2023-07-20T00:21:52;101252.84;;;17.62;61.47
60897;BME280;46749;32.932;-117.130;2023-07-20T00:24:18;101238.84;;;17.61;61.47
60897;BME280;46749;32.932;-117.130;2023-07-20T00:26:45;101247.59;;;17.62;61.14
60897;BME280;46749;32.932;-117.130;2023-07-20T00:29:11;101240.59;;;17.61;61.69
60897;BME280;46749;32.932;-117.130;2023-07-20T00:31:38;101240.59;;;17.62;61.54
60897;BME280;46749;32.932;-117.130;2023-07-20T00:34:05;101235.34;;;17.62;61.47
60897;BME280;46749;32.932;-117.130;2023-07-20T00:36:32;101238.88;;;17.63;61.46
60897;BME280;46749;32.932;-117.130;2023-07-20T00:38:58;101226.59;;;17.62;61.50
60897;BME280;46749;32.932;-117.130;2023-07-20T00:41:24;101230.09;;;17.62;61.54
60897;BME280;46749;32.932;-117.130;2023-07-20T00:43:50;101233.59;;;17.63;61.59
60897;BME280;46749;32.932;-117.130;2023-07-20T00:46:16;101228.34;;;17.63;61.23
60897;BME280;46749;32.932;-117.130;2023-07-20T00:48:43;101229.22;;;17.63;61.36
60897;BME280;46749;32.932;-117.130;2023-07-20T00:51:09;101215.25;;;17.64;61.44
60897;BME280;46749;32.932;-117.130;2023-07-20T00:53:36;101224.88;;;17.64;61.38
60897;BME280;46749;32.932;-117.130;2023-07-20T00:56:03;101223.13;;;17.64;61.44
60897;BME280;46749;32.932;-117.130;2023-07-20T00:58:29;101221.34;;;17.63;61.40
60897;BME280;46749;32.932;-117.130;2023-07-20T01:00:55;101213.47;;;17.63;61.41
60897;BME280;46749;32.932;-117.130;2023-07-20T01:03:21;101226.63;;;17.65;61.35
60897;BME280;46749;32.932;-117.130;2023-07-20T01:12:02;101223.13;;;17.66;61.30
60897;BME280;46749;32.932;-117.130;2023-07-20T01:14:31;101224.94;;;17.67;61.53
60897;BME280;46749;32.932;-117.130;2023-07-20T01:16:58;101227.56;;;17.67;61.43
60897;BME280;46749;32.932;-117.130;2023-07-20T01:19:25;101212.63;;;17.66;61.54
60897;BME280;46749;32.932;-117.130;2023-07-20T01:32:42;101210.03;;;17.67;61.51
60897;BME280;46749;32.932;-117.130;2023-07-20T01:35:12;101215.31;;;17.67;61.49
60897;BME280;46749;32.932;-117.130;2023-07-20T01:37:43;101208.28;;;17.68;61.40
60897;BME280;46749;32.932;-117.130;2023-07-20T01:40:11;101208.28;;;17.68;61.61
60897;BME280;46749;32.932;-117.130;2023-07-20T01:42:44;101214.44;;;17.70;61.37
60897;BME280;46749;32.932;-117.130;2023-07-20T01:45:11;101217.94;;;17.69;61.66
60897;BME280;46749;32.932;-117.130;2023-07-20T01:47:37;101218.81;;;17.69;61.26
60897;BME280;46749;32.932;-117.130;2023-07-20T01:50:04;101218.81;;;17.69;61.54
60897;BME280;46749;32.932;-117.130;2023-07-20T01:52:30;101221.44;;;17.69;61.50
60897;BME280;46749;32.932;-117.130;2023-07-20T01:54:56;101225.81;;;17.69;61.40
60897;BME280;46749;32.932;-117.130;2023-07-20T01:57:22;101225.81;;;17.69;61.64
60897;BME280;46749;32.932;-117.130;2023-07-20T01:59:49;101224.97;;;17.70;61.43
60897;BME280;46749;32.932;-117.130;2023-07-20T02:02:15;101226.69;;;17.69;61.57
60897;BME280;46749;32.932;-117.130;2023-07-20T02:04:41;101231.09;;;17.70;61.58
60897;BME280;46749;32.932;-117.130;2023-07-20T02:07:07;101220.59;;;17.70;61.59
60897;BME280;46749;32.932;-117.130;2023-07-20T02:09:33;101223.22;;;17.70;61.55
60897;BME280;46749;32.932;-117.130;2023-07-20T02:11:59;101220.59;;;17.70;61.39
60897;BME280;46749;32.932;-117.130;2023-07-20T02:14:25;101221.47;;;17.71;61.40
60897;BME280;46749;32.932;-117.130;2023-07-20T02:16:52;101213.59;;;17.71;61.63
60897;BME280;46749;32.932;-117.130;2023-07-20T02:19:20;101221.47;;;17.71;61.42
60897;BME280;46749;32.932;-117.130;2023-07-20T02:21:46;101216.22;;;17.71;61.50
60897;BME280;46749;32.932;-117.130;2023-07-20T02:24:13;101210.13;;;17.72;61.41
60897;BME280;46749;32.932;-117.130;2023-07-20T02:26:39;101210.97;;;17.71;61.67
60897;BME280;46749;32.932;-117.130;2023-07-20T02:29:05;101215.38;;;17.72;61.65
60897;BME280;46749;32.932;-117.130;2023-07-20T02:31:33;101218.00;;;17.72;61.66
60897;BME280;46749;32.932;-117.130;2023-07-20T02:33:59;101207.50;;;17.72;61.67
60897;BME280;46749;32.932;-117.130;2023-07-20T02:36:26;101218.00;;;17.72;61.54
60897;BME280;46749;32.932;-117.130;2023-07-20T02:38:52;101205.69;;;17.71;61.68
60897;BME280;46749;32.932;-117.130;2023-07-20T02:41:18;101211.88;;;17.71;61.59
60897;BME280;46749;32.932;-117.130;2023-07-20T02:43:44;101212.75;;;17.72;61.83
60897;BME280;46749;32.932;-117.130;2023-07-20T02:46:11;101217.13;;;17.71;61.46
60897;BME280;46749;32.932;-117.130;2023-07-20T02:48:37;101210.97;;;17.71;61.65
60897;BME280;46749;32.932;-117.130;2023-07-20T02:51:03;101217.13;;;17.71;61.53
60897;BME280;46749;32.932;-117.130;2023-07-20T02:53:30;101220.63;;;17.72;61.56
60897;BME280;46749;32.932;-117.130;2023-07-20T02:55:56;101216.22;;;17.71;61.42
60897;BME280;46749;32.932;-117.130;2023-07-20T02:58:22;101218.00;;;17.72;61.62
60897;BME280;46749;32.932;-117.130;2023-07-20T03:00:48;101221.47;;;17.71;61.56
60897;BME280;46749;32.932;-117.130;2023-07-20T03:03:14;101212.75;;;17.72;61.67
60897;BME280;46749;32.932;-117.130;2023-07-20T03:05:41;101210.97;;;17.71;61.51
60897;BME280;46749;32.932;-117.130;2023-07-20T03:08:08;101208.34;;;17.71;61.56
60897;BME280;46749;32.932;-117.130;2023-07-20T03:10:43;101213.59;;;17.71;61.64
60897;BME280;46749;32.932;-117.130;2023-07-20T03:13:09;101213.59;;;17.71;61.76
60897;BME280;46749;32.932;-117.130;2023-07-20T03:15:35;101217.13;;;17.71;61.59
60897;BME280;46749;32.932;-117.130;2023-07-20T03:18:02;101211.88;;;17.71;61.73
60897;BME280;46749;32.932;-117.130;2023-07-20T03:20:28;101218.84;;;17.71;61.71
60897;BME280;46749;32.932;-117.130;2023-07-20T03:22:54;101217.97;;;17.70;61.54
60897;BME280;46749;32.932;-117.130;2023-07-20T03:25:20;101220.59;;;17.70;61.55
60897;BME280;46749;32.932;-117.130;2023-07-20T03:27:48;101217.97;;;17.70;61.51
60897;BME280;46749;32.932;-117.130;2023-07-20T03:30:14;101220.59;;;17.70;61.65
60897;BME280;46749;32.932;-117.130;2023-07-20T03:32:40;101219.69;;;17.70;61.43
60897;BME280;46749;32.932;-117.130;2023-07-20T03:35:07;101221.47;;;17.71;61.65
60897;BME280;46749;32.932;-117.130;2023-07-20T03:37:33;101221.47;;;17.71;61.60
60897;BME280;46749;32.932;-117.130;2023-07-20T03:40:02;101227.63;;;17.71;61.77
60897;BME280;46749;32.932;-117.130;2023-07-20T03:42:28;101226.72;;;17.71;61.73
60897;BME280;46749;32.932;-117.130;2023-07-20T03:44:54;101233.72;;;17.70;61.82
60897;BME280;46749;32.932;-117.130;2023-07-20T03:47:21;101224.09;;;17.71;61.74
60897;BME280;46749;32.932;-117.130;2023-07-20T03:49:47;101234.59;;;17.71;61.70
60897;BME280;46749;32.932;-117.130;2023-07-20T03:52:13;101242.47;;;17.71;61.79
60897;BME280;46749;32.932;-117.130;2023-07-20T03:54:39;101243.41;;;17.71;61.66
60897;BME280;46749;32.932;-117.130;2023-07-20T03:57:05;101247.72;;;17.71;61.59
60897;BME280;46749;32.932;-117.130;2023-07-20T03:59:31;101249.47;;;17.70;61.60
60897;BME280;46749;32.932;-117.130;2023-07-20T04:01:59;101253.00;;;17.71;61.73
60897;BME280;46749;32.932;-117.130;2023-07-20T04:04:25;101251.22;;;17.70;61.57
60897;BME280;46749;32.932;-117.130;2023-07-20T04:06:51;101251.22;;;17.70;61.67
60897;BME280;46749;32.932;-117.130;2023-07-20T04:09:17;101256.47;;;17.70;61.81
60897;BME280;46749;32.932;-117.130;2023-07-20T04:11:44;101256.47;;;17.70;61.78
60897;BME280;46749;32.932;-117.130;2023-07-20T04:14:10;101263.50;;;17.71;61.77
60897;BME280;46749;32.932;-117.130;2023-07-20T04:16:36;101247.72;;;17.71;61.80
60897;BME280;46749;32.932;-117.130;2023-07-20T04:19:03;101259.16;;;17.71;61.67
60897;BME280;46749;32.932;-117.130;2023-07-20T04:21:29;101262.63;;;17.70;61.81
60897;BME280;46749;32.932;-117.130;2023-07-20T04:23:55;101262.63;;;17.70;61.68
60897;BME280;46749;32.932;-117.130;2023-07-20T04:26:21;101270.53;;;17.72;61.68
60897;BME280;46749;32.932;-117.130;2023-07-20T04:28:47;101265.34;;;17.73;61.54
60897;BME280;46749;32.932;-117.130;2023-07-20T04:31:15;101268.84;;;17.74;61.89
60897;BME280;46749;32.932;-117.130;2023-07-20T04:33:42;101279.31;;;17.72;61.96
60897;BME280;46749;32.932;-117.130;2023-07-20T04:36:08;101279.25;;;17.71;61.92
60897;BME280;46749;32.932;-117.130;2023-07-20T04:38:34;101270.53;;;17.72;62.09
60897;BME280;46749;32.932;-117.130;2023-07-20T04:41:01;101284.50;;;17.71;61.90
60897;BME280;46749;32.932;-117.130;2023-07-20T04:43:28;101284.50;;;17.71;61.83
60897;BME280;46749;32.932;-117.130;2023-07-20T04:45:55;101281.88;;;17.71;61.83
60897;BME280;46749;32.932;-117.130;2023-07-20T04:48:21;101295.03;;;17.71;61.75
60897;BME280;46749;32.932;-117.130;2023-07-20T04:50:47;101286.25;;;17.70;61.82
60897;BME280;46749;32.932;-117.130;2023-07-20T04:53:13;101285.38;;;17.70;61.81
60897;BME280;46749;32.932;-117.130;2023-07-20T04:55:40;101287.13;;;17.69;61.96
60897;BME280;46749;32.932;-117.130;2023-07-20T04:58:07;101292.38;;;17.69;61.73
60897;BME280;46749;32.932;-117.130;2023-07-20T05:00:33;101289.75;;;17.69;61.53
60897;BME280;46749;32.932;-117.130;2023-07-20T05:03:00;101289.75;;;17.71;61.79
60897;BME280;46749;32.932;-117.130;2023-07-20T05:05:26;101281.88;;;17.69;61.53
60897;BME280;46749;32.932;-117.130;2023-07-20T05:07:52;101288.88;;;17.69;61.76
60897;BME280;46749;32.932;-117.130;2023-07-20T05:10:18;101287.13;;;17.69;61.75
60897;BME280;46749;32.932;-117.130;2023-07-20T05:12:44;101292.38;;;17.69;61.86
60897;BME280;46749;32.932;-117.130;2023-07-20T05:15:11;101293.25;;;17.68;61.82
60897;BME280;46749;32.932;-117.130;2023-07-20T05:17:37;101285.34;;;17.68;61.83
60897;BME280;46749;32.932;-117.130;2023-07-20T05:20:05;101294.09;;;17.67;61.87
60897;BME280;46749;32.932;-117.130;2023-07-20T05:22:31;101290.59;;;17.67;61.74
60897;BME280;46749;32.932;-117.130;2023-07-20T05:24:58;101305.50;;;17.68;61.91
60897;BME280;46749;32.932;-117.130;2023-07-20T05:27:24;101299.34;;;17.67;61.64
60897;BME280;46749;32.932;-117.130;2023-07-20T05:29:50;101299.34;;;17.67;61.58
60897;BME280;46749;32.932;-117.130;2023-07-20T05:32:17;101301.13;;;17.68;61.71
60897;BME280;46749;32.932;-117.130;2023-07-20T05:34:43;101304.63;;;17.67;61.72
60897;BME280;46749;32.932;-117.130;2023-07-20T05:37:09;101293.22;;;17.67;61.76
60897;BME280;46749;32.932;-117.130;2023-07-20T05:39:35;101298.47;;;17.67;61.98
60897;BME280;46749;32.932;-117.130;2023-07-20T05:42:01;101303.72;;;17.67;61.77
60897;BME280;46749;32.932;-117.130;2023-07-20T05:44:28;101298.47;;;17.67;61.76
60897;BME280;46749;32.932;-117.130;2023-07-20T05:46:54;101301.94;;;17.66;61.73
60897;BME280;46749;32.932;-117.130;2023-07-20T05:49:20;101303.72;;;17.67;61.89
60897;BME280;46749;32.932;-117.130;2023-07-20T05:51:46;101302.84;;;17.66;61.98
60897;BME280;46749;32.932;-117.130;2023-07-20T05:54:13;101300.22;;;17.66;62.02
60897;BME280;46749;32.932;-117.130;2023-07-20T05:56:39;101314.25;;;17.67;61.72
60897;BME280;46749;32.932;-117.130;2023-07-20T05:59:06;101307.19;;;17.66;61.69
60897;BME280;46749;32.932;-117.130;2023-07-20T06:01:32;101311.63;;;17.67;61.89
60897;BME280;46749;32.932;-117.130;2023-07-20T06:03:58;101307.19;;;17.66;61.84
60897;BME280;46749;32.932;-117.130;2023-07-20T06:06:24;101314.19;;;17.65;61.71
60897;BME280;46749;32.932;-117.130;2023-07-20T06:08:51;101307.19;;;17.66;61.86
60897;BME280;46749;32.932;-117.130;2023-07-20T06:11:17;101307.19;;;17.66;61.52
60897;BME280;46749;32.932;-117.130;2023-07-20T06:13:44;101298.44;;;17.65;61.72
60897;BME280;46749;32.932;-117.130;2023-07-20T06:16:10;101310.69;;;17.65;61.61
60897;BME280;46749;32.932;-117.130;2023-07-20T06:18:36;101310.69;;;17.65;61.78
60897;BME280;46749;32.932;-117.130;2023-07-20T06:21:02;101311.53;;;17.64;61.67
60897;BME280;46749;32.932;-117.130;2023-07-20T06:23:28;101307.16;;;17.63;61.82
60897;BME280;46749;32.932;-117.130;2023-07-20T06:25:55;101305.44;;;17.65;61.51
60897;BME280;46749;32.932;-117.130;2023-07-20T06:28:21;101303.66;;;17.64;61.65
60897;BME280;46749;32.932;-117.130;2023-07-20T06:30:47;101307.16;;;17.63;61.77
60897;BME280;46749;32.932;-117.130;2023-07-20T06:33:13;101303.66;;;17.64;61.91
60897;BME280;46749;32.932;-117.130;2023-07-20T06:35:41;101314.16;;;17.64;61.87
60897;BME280;46749;32.932;-117.130;2023-07-20T06:38:08;101307.16;;;17.63;61.68
60897;BME280;46749;32.932;-117.130;2023-07-20T06:40:35;101309.78;;;17.63;61.82
60897;BME280;46749;32.932;-117.130;2023-07-20T06:43:01;101307.16;;;17.63;61.85
60897;BME280;46749;32.932;-117.130;2023-07-20T06:45:27;101308.91;;;17.62;61.63
60897;BME280;46749;32.932;-117.130;2023-07-20T06:47:53;101311.53;;;17.62;61.73
60897;BME280;46749;32.932;-117.130;2023-07-20T06:50:19;101312.41;;;17.63;61.89
60897;BME280;46749;32.932;-117.130;2023-07-20T06:52:45;101310.66;;;17.62;61.74
60897;BME280;46749;32.932;-117.130;2023-07-20T06:55:13;101311.53;;;17.62;61.76
60897;BME280;46749;32.932;-117.130;2023-07-20T06:57:40;101308.03;;;17.62;61.82
60897;BME280;46749;32.932;-117.130;2023-07-20T07:00:06;101300.13;;;17.62;61.76
60897;BME280;46749;32.932;-117.130;2023-07-20T07:02:33;101306.25;;;17.61;61.78
60897;BME280;46749;32.932;-117.130;2023-07-20T07:05:00;101308.00;;;17.60;61.86
60897;BME280;46749;32.932;-117.130;2023-07-20T07:07:27;101305.41;;;17.62;61.77
60897;BME280;46749;32.932;-117.130;2023-07-20T07:09:53;101308.88;;;17.61;61.81
60897;BME280;46749;32.932;-117.130;2023-07-20T07:12:19;101307.13;;;17.61;61.64
60897;BME280;46749;32.932;-117.130;2023-07-20T07:14:45;101303.63;;;17.61;61.83
60897;BME280;46749;32.932;-117.130;2023-07-20T07:17:11;101302.75;;;17.60;61.71
60897;BME280;46749;32.932;-117.130;2023-07-20T07:19:38;101309.72;;;17.60;61.72
60897;BME280;46749;32.932;-117.130;2023-07-20T07:22:04;101311.50;;;17.61;61.88
60897;BME280;46749;32.932;-117.130;2023-07-20T07:24:30;101312.34;;;17.60;61.69
60897;BME280;46749;32.932;-117.130;2023-07-20T07:27:02;101310.56;;;17.59;61.58
60897;BME280;46749;32.932;-117.130;2023-07-20T07:29:29;101312.34;;;17.60;61.74
60897;BME280;46749;32.932;-117.130;2023-07-20T07:31:55;101305.31;;;17.59;61.93
60897;BME280;46749;32.932;-117.130;2023-07-20T07:34:21;101317.56;;;17.58;61.91
60897;BME280;46749;32.932;-117.130;2023-07-20T07:36:48;101315.81;;;17.59;61.86
60897;BME280;46749;32.932;-117.130;2023-07-20T07:39:14;101324.56;;;17.58;61.76
60897;BME280;46749;32.932;-117.130;2023-07-20T07:41:40;101320.19;;;17.58;61.73
60897;BME280;46749;32.932;-117.130;2023-07-20T07:44:06;101325.44;;;17.58;61.70
60897;BME280;46749;32.932;-117.130;2023-07-20T07:46:32;101323.72;;;17.59;61.85
60897;BME280;46749;32.932;-117.130;2023-07-20T07:48:58;101324.56;;;17.58;61.79
60897;BME280;46749;32.932;-117.130;2023-07-20T07:51:25;101324.56;;;17.58;61.96
60897;BME280;46749;32.932;-117.130;2023-07-20T07:53:52;101323.69;;;17.57;61.95
60897;BME280;46749;32.932;-117.130;2023-07-20T07:56:19;101319.31;;;17.58;62.02
60897;BME280;46749;32.932;-117.130;2023-07-20T07:58:51;101312.31;;;17.57;61.76
60897;BME280;46749;32.932;-117.130;2023-07-20T08:01:18;101309.69;;;17.57;61.79
60897;BME280;46749;32.932;-117.130;2023-07-20T08:03:47;101314.06;;;17.56;61.88
60897;BME280;46749;32.932;-117.130;2023-07-20T08:06:14;101305.28;;;17.56;61.75
60897;BME280;46749;32.932;-117.130;2023-07-20T08:08:40;101305.28;;;17.56;61.80
60897;BME280;46749;32.932;-117.130;2023-07-20T08:11:06;101310.53;;;17.56;62.01
60897;BME280;46749;32.932;-117.130;2023-07-20T08:13:33;101305.28;;;17.56;61.95
60897;BME280;46749;32.932;-117.130;2023-07-20T08:15:59;101301.78;;;17.55;61.85
60897;BME280;46749;32.932;-117.130;2023-07-20T08:18:25;101299.16;;;17.55;61.82
60897;BME280;46749;32.932;-117.130;2023-07-20T08:20:51;101302.66;;;17.54;61.90
60897;BME280;46749;32.932;-117.130;2023-07-20T08:23:17;101297.38;;;17.54;61.81
60897;BME280;46749;32.932;-117.130;2023-07-20T08:25:44;101302.66;;;17.54;61.73
60897;BME280;46749;32.932;-117.130;2023-07-20T08:28:12;101300.00;;;17.54;61.98
60897;BME280;46749;32.932;-117.130;2023-07-20T08:30:46;101310.53;;;17.54;61.92
60897;BME280;46749;32.932;-117.130;2023-07-20T08:33:17;101303.53;;;17.55;61.93
60897;BME280;46749;32.932;-117.130;2023-07-20T08:35:45;101302.59;;;17.52;61.97
60897;BME280;46749;32.932;-117.130;2023-07-20T08:38:12;101299.97;;;17.52;61.85
60897;BME280;46749;32.932;-117.130;2023-07-20T08:40:46;101305.22;;;17.52;61.88
60897;BME280;46749;32.932;-117.130;2023-07-20T08:43:13;101299.97;;;17.52;61.65
60897;BME280;46749;32.932;-117.130;2023-07-20T08:45:42;101304.34;;;17.52;61.78
60897;BME280;46749;32.932;-117.130;2023-07-20T08:48:11;101303.44;;;17.51;61.94
60897;BME280;46749;32.932;-117.130;2023-07-20T08:50:38;101300.81;;;17.51;61.94
60897;BME280;46749;32.932;-117.130;2023-07-20T08:53:06;101296.44;;;17.50;61.85
60897;BME280;46749;32.932;-117.130;2023-07-20T08:55:32;101286.81;;;17.51;61.96
60897;BME280;46749;32.932;-117.130;2023-07-20T08:58:00;101296.44;;;17.50;61.93
60897;BME280;46749;32.932;-117.130;2023-07-20T09:00:26;101289.44;;;17.49;61.85
60897;BME280;46749;32.932;-117.130;2023-07-20T09:02:55;101291.19;;;17.50;62.10
60897;BME280;46749;32.932;-117.130;2023-07-20T09:05:23;101278.06;;;17.50;61.89
60897;BME280;46749;32.932;-117.130;2023-07-20T09:07:51;101283.28;;;17.49;61.77
60897;BME280;46749;32.932;-117.130;2023-07-20T09:10:21;101287.66;;;17.48;61.92
60897;BME280;46749;32.932;-117.130;2023-07-20T09:12:47;101285.03;;;17.48;61.76
60897;BME280;46749;32.932;-117.130;2023-07-20T09:15:14;101284.16;;;17.48;61.86
60897;BME280;46749;32.932;-117.130;2023-07-20T09:17:46;101287.66;;;17.48;61.88
60897;BME280;46749;32.932;-117.130;2023-07-20T09:20:15;101287.66;;;17.48;62.00
60897;BME280;46749;32.932;-117.130;2023-07-20T09:22:42;101290.28;;;17.48;61.81
60897;BME280;46749;32.932;-117.130;2023-07-20T09:25:12;101292.03;;;17.48;61.93
60897;BME280;46749;32.932;-117.130;2023-07-20T09:27:42;101291.16;;;17.49;61.92
60897;BME280;46749;32.932;-117.130;2023-07-20T09:30:10;101285.91;;;17.47;61.98
60897;BME280;46749;32.932;-117.130;2023-07-20T09:32:44;101285.91;;;17.47;61.95
60897;BME280;46749;32.932;-117.130;2023-07-20T09:35:14;101284.97;;;17.47;61.64
60897;BME280;46749;32.932;-117.130;2023-07-20T09:37:57;101290.22;;;17.47;61.87
60897;BME280;46749;32.932;-117.130;2023-07-20T09:40:25;101284.09;;;17.46;61.77
60897;BME280;46749;32.932;-117.130;2023-07-20T09:42:53;101291.09;;;17.46;61.97
60897;BME280;46749;32.932;-117.130;2023-07-20T09:45:41;101288.47;;;17.46;61.99
60897;BME280;46749;32.932;-117.130;2023-07-20T09:48:09;101295.50;;;17.47;61.78
60897;BME280;46749;32.932;-117.130;2023-07-20T09:50:43;101290.22;;;17.45;61.99
60897;BME280;46749;32.932;-117.130;2023-07-20T09:53:15;101286.72;;;17.45;61.85
60897;BME280;46749;32.932;-117.130;2023-07-20T09:55:47;101291.97;;;17.45;62.08
60897;BME280;46749;32.932;-117.130;2023-07-20T09:58:15;101280.56;;;17.44;61.93
60897;BME280;46749;32.932;-117.130;2023-07-20T10:00:42;101280.56;;;17.44;61.91
60897;BME280;46749;32.932;-117.130;2023-07-20T10:03:16;101285.81;;;17.44;61.96
60897;BME280;46749;32.932;-117.130;2023-07-20T10:05:47;101280.56;;;17.44;61.94
60897;BME280;46749;32.932;-117.130;2023-07-20T10:08:17;101290.19;;;17.44;61.98
60897;BME280;46749;32.932;-117.130;2023-07-20T10:10:45;101291.94;;;17.43;61.89
60897;BME280;46749;32.932;-117.130;2023-07-20T10:13:17;101280.56;;;17.43;61.84
60897;BME280;46749;32.932;-117.130;2023-07-20T10:21:17;101282.31;;;17.42;61.80
60897;BME280;46749;32.932;-117.130;2023-07-20T10:23:46;101273.53;;;17.42;61.81
60897;BME280;46749;32.932;-117.130;2023-07-20T10:26:13;101282.25;;;17.41;62.05
60897;BME280;46749;32.932;-117.130;2023-07-20T10:28:39;101284.00;;;17.40;61.82
60897;BME280;46749;32.932;-117.130;2023-07-20T10:31:11;101279.59;;;17.39;62.04
60897;BME280;46749;32.932;-117.130;2023-07-20T10:33:39;101278.75;;;17.40;61.88
60897;BME280;46749;32.932;-117.130;2023-07-20T10:36:06;101274.34;;;17.39;61.82
60897;BME280;46749;32.932;-117.130;2023-07-20T10:41:21;101282.22;;;17.39;61.80
60897;BME280;46749;32.932;-117.130;2023-07-20T10:43:50;101282.22;;;17.39;61.98
60897;BME280;46749;32.932;-117.130;2023-07-20T10:49:03;101275.22;;;17.38;61.80
60897;BME280;46749;32.932;-117.130;2023-07-20T10:51:31;101275.22;;;17.38;61.84
60897;BME280;46749;32.932;-117.130;2023-07-20T10:54:08;101276.09;;;17.39;61.94
60897;BME280;46749;32.932;-117.130;2023-07-20T10:56:34;101273.47;;;17.37;61.89
60897;BME280;46749;32.932;-117.130;2023-07-20T10:59:01;101283.97;;;17.37;62.05
60897;BME280;46749;32.932;-117.130;2023-07-20T11:01:44;101278.72;;;17.37;61.96
60897;BME280;46749;32.932;-117.130;2023-07-20T11:04:11;101278.72;;;17.37;62.01
60897;BME280;46749;32.932;-117.130;2023-07-20T11:06:37;101277.81;;;17.37;62.00
60897;BME280;46749;32.932;-117.130;2023-07-20T11:09:07;101278.72;;;17.37;61.94
60897;BME280;46749;32.932;-117.130;2023-07-20T11:11:47;101273.47;;;17.37;61.82
60897;BME280;46749;32.932;-117.130;2023-07-20T11:14:23;101269.06;;;17.36;61.93
60897;BME280;46749;32.932;-117.130;2023-07-20T11:16:51;101270.75;;;17.34;61.89
60897;BME280;46749;32.932;-117.130;2023-07-20T11:19:23;101279.53;;;17.35;61.76
60897;BME280;46749;32.932;-117.130;2023-07-20T11:21:56;101269.94;;;17.35;61.74
60897;BME280;46749;32.932;-117.130;2023-07-20T11:24:24;101272.50;;;17.34;61.94
60897;BME280;46749;32.932;-117.130;2023-07-20T11:26:52;101277.81;;;17.35;61.97
60897;BME280;46749;32.932;-117.130;2023-07-20T11:29:20;101278.63;;;17.34;62.05
60897;BME280;46749;32.932;-117.130;2023-07-20T11:31:47;101284.78;;;17.35;61.92
60897;BME280;46749;32.932;-117.130;2023-07-20T11:34:18;101278.63;;;17.34;61.97
60897;BME280;46749;32.932;-117.130;2023-07-20T11:36:46;101276.88;;;17.33;61.72
60897;BME280;46749;32.932;-117.130;2023-07-20T11:39:15;101279.50;;;17.33;62.02
60897;BME280;46749;32.932;-117.130;2023-07-20T11:41:48;101269.00;;;17.33;61.82
60897;BME280;46749;32.932;-117.130;2023-07-20T11:44:19;101266.38;;;17.33;61.94
60897;BME280;46749;32.932;-117.130;2023-07-20T11:46:50;101269.00;;;17.33;61.86
60897;BME280;46749;32.932;-117.130;2023-07-20T11:49:16;101266.38;;;17.33;62.04
60897;BME280;46749;32.932;-117.130;2023-07-20T11:51:42;101264.59;;;17.32;61.83
60897;BME280;46749;32.932;-117.130;2023-07-20T11:54:09;101268.97;;;17.32;61.84
60897;BME280;46749;32.932;-117.130;2023-07-20T11:56:35;101263.72;;;17.32;61.81
60897;BME280;46749;32.932;-117.130;2023-07-20T11:59:02;101273.34;;;17.31;61.84
60897;BME280;46749;32.932;-117.130;2023-07-20T12:01:29;101270.72;;;17.31;61.92
60897;BME280;46749;32.932;-117.130;2023-07-20T12:04:02;101275.97;;;17.31;61.84
60897;BME280;46749;32.932;-117.130;2023-07-20T12:06:29;101271.59;;;17.30;62.14
60897;BME280;46749;32.932;-117.130;2023-07-20T12:08:57;101281.22;;;17.30;61.80
60897;BME280;46749;32.932;-117.130;2023-07-20T12:11:33;101281.22;;;17.30;61.90
60897;BME280;46749;32.932;-117.130;2023-07-20T12:14:00;101275.97;;;17.30;62.02
60897;BME280;46749;32.932;-117.130;2023-07-20T12:16:27;101277.69;;;17.29;61.92
60897;BME280;46749;32.932;-117.130;2023-07-20T12:19:06;101282.06;;;17.29;61.92
60897;BME280;46749;32.932;-117.130;2023-07-20T12:21:35;101282.94;;;17.29;61.81
60897;BME280;46749;32.932;-117.130;2023-07-20T12:24:06;101281.16;;;17.28;61.85
60897;BME280;46749;32.932;-117.130;2023-07-20T12:26:33;101289.03;;;17.28;61.92
60897;BME280;46749;32.932;-117.130;2023-07-20T12:29:00;101287.28;;;17.27;61.95
60897;BME280;46749;32.932;-117.130;2023-07-20T12:31:27;101303.91;;;17.27;61.92
60897;BME280;46749;32.932;-117.130;2023-07-20T12:33:57;101296.88;;;17.26;61.93
60897;BME280;46749;32.932;-117.130;2023-07-20T12:36:24;101298.66;;;17.27;62.16
60897;BME280;46749;32.932;-117.130;2023-07-20T12:38:50;101306.50;;;17.26;61.94
60897;BME280;46749;32.932;-117.130;2023-07-20T12:41:17;101303.88;;;17.26;61.88
60897;BME280;46749;32.932;-117.130;2023-07-20T12:43:46;101307.38;;;17.26;61.94
60897;BME280;46749;32.932;-117.130;2023-07-20T12:46:13;101304.75;;;17.25;61.96
60897;BME280;46749;32.932;-117.130;2023-07-20T12:48:40;101310.00;;;17.25;62.04
60897;BME280;46749;32.932;-117.130;2023-07-20T12:51:11;101306.47;;;17.24;61.79